Time;durP1;ratioP1;P1;durP2;ratioP2;P2;SDS_P1;SDS_P2;PMS_P1;PMS_P2;Temp;Humidity;BMP_temperature;BMP_pressure;BME280_temperature;BME280_humidity;BME280_pressure;Samples;Min_cycle;Max_cycle;Signal;HPM_P1;HPM_P2
2021/04/29 00:00:53;;;;;;;;;2.00;2.00;;;;;18.96;21.76;99589.16;4988081;28;8820;-48
2021/04/29 00:03:18;;;;;;;;;2.20;2.20;;;;;18.90;21.70;99581.13;4984333;28;8861;-48
2021/04/29 00:05:44;;;;;;;;;2.00;2.00;;;;;18.89;21.60;99575.97;4984640;28;8813;-48
2021/04/29 00:08:09;;;;;;;;;3.00;3.00;;;;;18.93;21.74;99587.88;4987815;28;8800;-46
2021/04/29 00:10:34;;;;;;;;;2.00;2.00;;;;;18.91;21.72;99585.47;4985348;28;8886;-47
2021/04/29 00:13:00;;;;;;;;;1.75;1.75;;;;;18.91;21.68;99584.69;4991460;28;8900;-47
2021/04/29 00:15:26;;;;;;;;;2.00;2.00;;;;;18.87;21.65;99578.22;4984677;28;8796;-48
2021/04/29 00:17:52;;;;;;;;;2.00;2.00;;;;;18.89;21.87;99581.44;4985980;28;8761;-48
2021/04/29 00:20:20;;;;;;;;;2.00;2.00;;;;;18.89;21.70;99579.53;4985911;28;8770;-49
2021/04/29 00:22:46;;;;;;;;;2.00;2.00;;;;;18.88;21.67;99591.56;4985394;28;9464;-49
2021/04/29 00:25:12;;;;;;;;;2.00;2.00;;;;;18.88;21.85;99583.38;4988634;28;8799;-49
2021/04/29 00:27:37;;;;;;;;;2.00;2.00;;;;;18.88;21.96;99588.06;4988370;28;8934;-46
2021/04/29 00:30:05;;;;;;;;;2.00;2.00;;;;;18.86;22.12;99591.09;4985356;28;8855;-48
2021/04/29 00:32:31;;;;;;;;;2.00;2.00;;;;;18.85;21.99;99589.47;4983237;28;8764;-47
2021/04/29 00:34:56;;;;;;;;;2.50;2.50;;;;;18.84;21.98;99587.91;4988009;28;8787;-48
2021/04/29 00:37:22;;;;;;;;;2.50;2.50;;;;;18.84;21.80;99579.69;4984880;28;8791;-47
2021/04/29 00:39:47;;;;;;;;;3.00;3.00;;;;;18.82;21.99;99592.88;4985915;28;8808;-46
2021/04/29 00:42:12;;;;;;;;;3.00;3.00;;;;;18.80;21.89;99588.81;4986738;28;8812;-48
2021/04/29 00:44:38;;;;;;;;;2.00;2.00;;;;;18.80;22.08;99589.63;4984180;28;8943;-46
2021/04/29 00:47:03;;;;;;;;;2.00;2.00;;;;;18.80;22.13;99589.63;4985472;28;8784;-48
2021/04/29 00:49:29;;;;;;;;;2.00;2.00;;;;;18.81;21.74;99590.44;4985861;28;9458;-46
2021/04/29 00:51:54;;;;;;;;;2.00;2.00;;;;;18.79;21.99;99588.03;4985534;28;9613;-46
2021/04/29 00:54:19;;;;;;;;;2.00;2.00;;;;;18.77;22.07;99590.28;4986526;28;8898;-47
2021/04/29 00:56:45;;;;;;;;;2.00;2.00;;;;;18.77;22.06;99586.75;4984295;28;8816;-47
2021/04/29 00:59:11;;;;;;;;;3.00;3.00;;;;;18.70;22.02;99573.59;4985291;28;8823;-49
2021/04/29 01:01:38;;;;;;;;;2.00;2.00;;;;;18.76;22.15;99590.63;4985597;28;11402;-49
2021/04/29 01:04:10;;;;;;;;;2.20;2.00;;;;;18.75;22.15;99589.81;4985712;28;11446;-48
2021/04/29 01:06:43;;;;;;;;;2.00;2.00;;;;;18.71;22.11;99586.13;4986799;28;9538;-47
2021/04/29 01:09:18;;;;;;;;;2.00;2.00;;;;;18.71;22.08;99581.47;4987700;28;8891;-48
2021/04/29 01:11:50;;;;;;;;;3.00;3.00;;;;;18.72;22.14;99588.53;4984363;28;8806;-47
2021/04/29 01:14:17;;;;;;;;;2.00;2.00;;;;;18.71;22.43;99586.94;4986182;28;8761;-47
2021/04/29 01:16:43;;;;;;;;;1.60;1.60;;;;;18.70;22.34;99587.25;4986345;28;8774;-47
2021/04/29 01:19:11;;;;;;;;;3.00;3.00;;;;;18.69;22.03;99588.38;4983008;28;8888;-47
2021/04/29 01:21:38;;;;;;;;;2.00;2.00;;;;;18.69;22.08;99583.69;4984062;28;11541;-48
2021/04/29 01:24:25;;;;;;;;;2.00;2.00;;;;;18.68;21.97;99586.75;4986907;28;8822;-48
2021/04/29 01:26:54;;;;;;;;;2.60;2.40;;;;;18.68;22.24;99578.56;4984623;28;8777;-47
2021/04/29 01:29:24;;;;;;;;;2.00;2.00;;;;;18.67;22.24;99585.16;4984338;28;8784;-48
2021/04/29 01:31:52;;;;;;;;;1.20;1.20;;;;;18.66;22.26;99581.63;4986247;28;8896;-47
2021/04/29 01:34:19;;;;;;;;;2.00;2.00;;;;;18.64;22.19;99575.66;4984780;28;8792;-46
2021/04/29 01:36:51;;;;;;;;;2.40;2.40;;;;;18.64;22.32;99583.06;4986470;28;8966;-47
2021/04/29 01:39:17;;;;;;;;;2.00;2.00;;;;;18.62;22.20;99586.13;4977253;28;8782;-47
2021/04/29 01:41:52;;;;;;;;;2.00;2.00;;;;;18.63;22.24;99585.00;4985472;28;8815;-46
2021/04/29 01:44:20;;;;;;;;;2.00;2.00;;;;;18.61;22.26;99581.81;4971959;28;8784;-49
2021/04/29 01:46:47;;;;;;;;;1.80;1.80;;;;;18.62;22.42;99579.88;4986590;28;8782;-48
2021/04/29 01:49:13;;;;;;;;;2.00;2.00;;;;;18.60;22.40;99582.13;4982989;28;8818;-47
2021/04/29 01:51:40;;;;;;;;;2.20;2.20;;;;;18.57;22.36;99575.34;4986162;28;8804;-47
2021/04/29 01:54:11;;;;;;;;;2.00;2.00;;;;;18.60;22.35;99584.84;4987053;28;8994;-48
2021/04/29 01:56:38;;;;;;;;;2.00;2.00;;;;;18.58;22.35;99582.44;4983889;28;8894;-46
2021/04/29 01:59:05;;;;;;;;;2.00;2.00;;;;;18.58;22.42;99582.44;4982930;28;8784;-46
2021/04/29 02:01:30;;;;;;;;;2.80;2.80;;;;;18.59;22.57;99583.22;4983136;28;8893;-46
2021/04/29 02:03:56;;;;;;;;;2.00;2.00;;;;;18.58;22.38;99578.91;4984119;28;8805;-47
2021/04/29 02:06:22;;;;;;;;;2.00;2.00;;;;;18.46;22.28;99566.69;4983309;28;8931;-46
2021/04/29 02:08:47;;;;;;;;;2.40;2.40;;;;;18.57;22.60;99590.94;4986145;28;8764;-48
2021/04/29 02:11:14;;;;;;;;;3.00;3.00;;;;;18.54;22.45;99582.28;4982012;28;9957;-47
2021/04/29 02:13:43;;;;;;;;;2.20;2.20;;;;;18.55;22.23;99592.06;4976282;28;8825;-47
2021/04/29 02:16:14;;;;;;;;;2.00;2.00;;;;;18.53;22.49;99594.31;4986746;28;8865;-48
2021/04/29 02:18:46;;;;;;;;;2.20;2.00;;;;;18.52;22.60;99595.47;4983765;28;10021;-47
2021/04/29 02:21:17;;;;;;;;;2.40;2.40;;;;;18.52;22.44;99590.00;4982604;28;8804;-47
2021/04/29 02:23:46;;;;;;;;;2.00;2.00;;;;;18.53;22.61;99591.59;4987106;28;8855;-49
2021/04/29 02:26:13;;;;;;;;;2.00;2.00;;;;;18.53;22.46;99597.06;4984026;28;8764;-50
2021/04/29 02:28:40;;;;;;;;;2.20;2.20;;;;;18.52;22.45;99591.91;4982843;28;8780;-50
2021/04/29 02:31:06;;;;;;;;;2.00;2.00;;;;;18.50;22.50;99589.53;4988632;28;8816;-50
2021/04/29 02:33:32;;;;;;;;;2.00;2.00;;;;;18.51;22.62;99590.31;4981931;28;8819;-49
2021/04/29 02:35:58;;;;;;;;;2.00;2.00;;;;;18.46;22.53;99591.28;4983143;28;8895;-50
2021/04/29 02:38:24;;;;;;;;;2.00;2.00;;;;;18.49;22.42;99590.63;4986086;28;8748;-48
2021/04/29 02:40:50;;;;;;;;;2.00;2.00;;;;;18.47;22.53;99586.63;4982297;28;8756;-51
2021/04/29 02:43:17;;;;;;;;;2.20;2.20;;;;;18.47;22.36;99592.91;4982093;28;8906;-50
2021/04/29 02:45:43;;;;;;;;;2.00;2.00;;;;;18.44;22.42;99585.34;4987347;28;8827;-49
2021/04/29 02:48:09;;;;;;;;;2.00;2.00;;;;;18.47;22.56;99594.81;4980792;28;8780;-48
2021/04/29 02:50:35;;;;;;;;;2.00;2.00;;;;;18.45;22.53;99589.69;4982300;28;8756;-50
2021/04/29 02:53:01;;;;;;;;;2.00;2.00;;;;;18.47;22.48;99592.91;4984351;28;8784;-50
2021/04/29 02:55:26;;;;;;;;;2.00;2.00;;;;;18.45;22.52;99597.88;4981613;28;8792;-48
2021/04/29 02:58:00;;;;;;;;;1.00;1.00;;;;;18.45;22.66;99599.78;4981973;28;8803;-48
2021/04/29 03:00:26;;;;;;;;;2.00;2.00;;;;;18.43;22.41;99597.38;4980330;28;8777;-49
2021/04/29 03:02:51;;;;;;;;;2.20;2.20;;;;;18.44;22.53;99592.72;4984450;28;8808;-50
2021/04/29 03:05:16;;;;;;;;;2.00;2.00;;;;;18.42;22.54;99595.78;4976110;28;8796;-48
2021/04/29 03:07:42;;;;;;;;;2.00;2.00;;;;;18.42;22.69;99593.06;4978013;28;8801;-48
2021/04/29 03:10:09;;;;;;;;;2.20;2.20;;;;;18.41;22.65;99587.91;4982564;28;8780;-48
2021/04/29 03:12:35;;;;;;;;;3.00;3.00;;;;;18.41;22.70;99596.91;4978251;28;8786;-49
2021/04/29 03:15:01;;;;;;;;;2.00;2.00;;;;;18.41;22.82;99596.91;4979809;28;8865;-49
2021/04/29 03:17:26;;;;;;;;;2.00;2.00;;;;;18.40;22.77;99598.03;4980080;28;8788;-49
2021/04/29 03:19:55;;;;;;;;;2.00;2.00;;;;;18.39;22.65;99601.09;4975097;28;8771;-47
2021/04/29 03:22:23;;;;;;;;;2.80;2.80;;;;;18.38;22.66;99594.81;4979445;28;8856;-49
2021/04/29 03:24:49;;;;;;;;;2.00;2.00;;;;;18.37;22.96;99595.94;4978218;28;8977;-49
2021/04/29 03:27:18;;;;;;;;;2.00;2.00;;;;;18.37;22.80;99601.41;4979176;28;8787;-49
2021/04/29 03:30:02;;;;;;;;;2.60;2.60;;;;;18.35;22.60;99595.47;4978564;28;10022;-49
2021/04/29 03:32:28;;;;;;;;;3.00;3.00;;;;;18.31;22.74;99584.38;4978469;28;8776;-50
2021/04/29 03:34:53;;;;;;;;;2.75;2.75;;;;;18.35;22.73;99595.47;4979100;28;8844;-48
2021/04/29 03:37:18;;;;;;;;;3.00;3.00;;;;;18.33;22.59;99598.50;4978370;28;9540;-49
2021/04/29 03:39:44;;;;;;;;;2.75;2.75;;;;;18.34;22.74;99594.63;4979212;28;8976;-49
2021/04/29 03:42:11;;;;;;;;;2.00;2.00;;;;;18.34;22.90;99600.09;4978723;28;8812;-48
2021/04/29 03:44:38;;;;;;;;;2.00;2.00;;;;;18.32;22.63;99593.38;4969029;28;9696;-49
2021/04/29 03:47:04;;;;;;;;;2.40;2.40;;;;;18.32;22.70;99596.09;4974121;28;8796;-47
2021/04/29 03:49:29;;;;;;;;;2.40;2.40;;;;;18.31;22.78;99597.22;4979320;28;8782;-48
2021/04/29 03:51:55;;;;;;;;;2.00;2.00;;;;;18.31;22.73;99599.94;4981658;28;8784;-48
2021/04/29 03:54:20;;;;;;;;;2.50;2.50;;;;;18.28;22.85;99601.41;4972168;28;11467;-48
2021/04/29 03:56:46;;;;;;;;;3.00;3.00;;;;;18.30;22.63;99601.88;4979773;28;8796;-49
2021/04/29 03:59:12;;;;;;;;;2.50;2.50;;;;;18.30;22.90;99607.34;4979341;28;8826;-50
2021/04/29 04:01:37;;;;;;;;;3.50;3.50;;;;;18.27;22.97;99596.25;4975956;28;12116;-49
2021/04/29 04:04:02;;;;;;;;;2.00;2.00;;;;;18.29;22.84;99604.91;4963070;28;10672;-49
2021/04/29 04:06:28;;;;;;;;;2.00;2.00;;;;;18.28;22.79;99609.59;4982732;28;8814;-48
2021/04/29 04:08:53;;;;;;;;;2.50;2.50;;;;;18.28;22.95;99606.06;4975064;28;8804;-49
2021/04/29 04:11:18;;;;;;;;;2.50;2.50;;;;;18.28;23.00;99603.34;4980205;28;8788;-51
2021/04/29 04:13:44;;;;;;;;;3.00;3.00;;;;;18.28;22.79;99611.53;4978254;28;8845;-48
2021/04/29 04:16:12;;;;;;;;;3.75;3.00;;;;;18.26;22.82;99608.31;4981910;28;8886;-49
2021/04/29 04:18:38;;;;;;;;;3.00;3.00;;;;;18.26;23.13;99609.13;4980925;28;8880;-50
2021/04/29 04:21:04;;;;;;;;;2.60;2.60;;;;;18.23;22.97;99619.88;4978185;28;8822;-50
2021/04/29 04:23:29;;;;;;;;;2.00;2.00;;;;;18.19;22.96;99602.50;4977687;28;8794;-49
2021/04/29 04:25:54;;;;;;;;;3.00;3.00;;;;;18.25;23.00;99623.06;4980687;28;8847;-50
2021/04/29 04:28:20;;;;;;;;;2.75;2.75;;;;;18.20;23.08;99604.91;4974297;28;8811;-48
2021/04/29 04:30:45;;;;;;;;;2.00;2.00;;;;;18.23;23.11;99625.31;4962310;28;9110;-50
2021/04/29 04:33:10;;;;;;;;;3.00;3.00;;;;;18.25;22.85;99623.06;4981201;28;8935;-50
2021/04/29 04:35:36;;;;;;;;;2.75;2.75;;;;;18.23;22.84;99620.66;4971430;28;8772;-49
2021/04/29 04:38:02;;;;;;;;;3.00;3.00;;;;;18.24;23.12;99624.19;4977149;28;9514;-50
2021/04/29 04:40:27;;;;;;;;;1.75;1.75;;;;;18.22;23.11;99623.72;4979775;28;8815;-49
2021/04/29 04:42:52;;;;;;;;;3.00;3.00;;;;;18.22;23.18;99619.03;4980723;28;8962;-48
2021/04/29 04:45:18;;;;;;;;;2.25;2.25;;;;;18.19;23.07;99624.34;4976332;28;8786;-48
2021/04/29 04:47:43;;;;;;;;;2.00;2.00;;;;;18.20;22.91;99626.75;4978548;28;8796;-49
2021/04/29 04:50:10;;;;;;;;;2.00;2.00;;;;;18.20;23.20;99625.97;4976376;28;8778;-50
2021/04/29 04:52:36;;;;;;;;;2.00;2.00;;;;;18.16;22.92;99623.84;4977273;28;8750;-48
2021/04/29 04:55:01;;;;;;;;;3.00;2.80;;;;;18.19;23.24;99621.59;4978469;28;8975;-49
2021/04/29 04:57:27;;;;;;;;;2.50;2.50;;;;;18.17;23.08;99622.75;4974094;28;8796;-49
2021/04/29 04:59:52;;;;;;;;;2.00;2.00;;;;;18.17;23.21;99621.97;4977295;28;11388;-48
2021/04/29 05:02:17;;;;;;;;;2.75;2.75;;;;;18.17;23.23;99624.69;4972967;28;9938;-50
2021/04/29 05:04:43;;;;;;;;;2.25;2.00;;;;;18.16;23.18;99628.53;4973674;28;8868;-50
2021/04/29 05:07:10;;;;;;;;;2.75;2.75;;;;;18.14;22.97;99619.84;4976214;28;8780;-49
2021/04/29 05:09:36;;;;;;;;;2.00;2.00;;;;;18.13;23.17;99629.16;4973363;28;8804;-47
2021/04/29 05:12:02;;;;;;;;;3.40;2.60;;;;;18.14;23.15;99628.84;4974765;28;8800;-49
2021/04/29 05:14:32;;;;;;;;;3.75;3.00;;;;;18.11;23.30;99624.00;4977902;28;9570;-48
2021/04/29 05:16:58;;;;;;;;;2.20;2.20;;;;;18.10;23.16;99621.59;4974762;28;9850;-50
2021/04/29 05:19:24;;;;;;;;;2.00;2.00;;;;;18.13;23.16;99632.72;4976171;28;8788;-49
2021/04/29 05:21:49;;;;;;;;;3.00;3.00;;;;;18.08;23.24;99621.94;4978699;28;8902;-47
2021/04/29 05:24:15;;;;;;;;;2.50;2.50;;;;;18.13;23.03;99627.25;4972839;28;8824;-49
2021/04/29 05:26:40;;;;;;;;;2.00;2.00;;;;;18.11;23.09;99634.94;4978629;28;8803;-50
2021/04/29 05:29:07;;;;;;;;;2.00;2.00;;;;;18.11;23.40;99632.19;4977059;28;10205;-47
2021/04/29 05:31:33;;;;;;;;;2.00;2.00;;;;;18.10;23.11;99633.34;4975058;28;8754;-50
2021/04/29 05:33:58;;;;;;;;;2.00;2.00;;;;;18.09;23.10;99639.91;4980679;28;9590;-49
2021/04/29 05:36:23;;;;;;;;;2.00;2.00;;;;;18.10;23.34;99633.34;4973868;28;8850;-48
2021/04/29 05:38:49;;;;;;;;;3.00;3.00;;;;;18.08;23.31;99635.59;4976996;28;8784;-49
2021/04/29 05:41:14;;;;;;;;;3.00;3.00;;;;;18.08;23.48;99641.03;4977008;28;9500;-47
2021/04/29 05:43:39;;;;;;;;;2.75;2.75;;;;;18.09;23.11;99642.63;4975158;28;8790;-48
2021/04/29 05:46:05;;;;;;;;;2.00;2.00;;;;;18.08;22.99;99643.78;4972890;28;8804;-48
2021/04/29 05:48:30;;;;;;;;;2.00;2.00;;;;;18.09;23.20;99653.56;4977766;28;8792;-48
2021/04/29 05:50:57;;;;;;;;;2.25;2.25;;;;;18.07;23.35;99646.81;4977293;28;8797;-49
2021/04/29 05:53:22;;;;;;;;;2.00;2.00;;;;;18.03;23.16;99643.09;4973746;28;8785;-48
2021/04/29 05:55:48;;;;;;;;;2.00;2.00;;;;;18.01;23.21;99635.25;4976516;28;9913;-49
2021/04/29 05:58:13;;;;;;;;;2.00;2.00;;;;;18.05;23.24;99646.34;4975382;28;8848;-49
2021/04/29 06:00:39;;;;;;;;;3.00;3.00;;;;;18.06;23.44;99648.72;4976996;28;8923;-47
2021/04/29 06:03:05;;;;;;;;;2.00;2.00;;;;;18.05;23.22;99646.34;4973744;28;8826;-49
2021/04/29 06:05:30;;;;;;;;;2.00;2.00;;;;;18.00;23.36;99641.81;4948978;28;9662;-50
2021/04/29 06:07:57;;;;;;;;;3.00;3.00;;;;;18.04;23.47;99655.63;4975384;28;8981;-47
2021/04/29 06:10:22;;;;;;;;;2.00;2.00;;;;;17.96;23.17;99638.13;4977594;28;8916;-50
2021/04/29 06:12:48;;;;;;;;;2.25;2.00;;;;;18.00;23.71;99650.00;4976909;28;9725;-48
2021/04/29 06:15:13;;;;;;;;;2.25;2.25;;;;;18.03;23.60;99656.75;4976492;28;8816;-48
2021/04/29 06:17:39;;;;;;;;;2.50;2.50;;;;;18.01;23.58;99653.53;4976211;28;8779;-48
2021/04/29 06:20:04;;;;;;;;;2.25;2.25;;;;;18.01;23.59;99657.09;4975782;28;8763;-49
2021/04/29 06:22:30;;;;;;;;;3.00;2.60;;;;;17.98;23.61;99644.88;4977894;28;8823;-48
2021/04/29 06:24:55;;;;;;;;;2.00;2.00;;;;;17.96;23.44;99655.28;4978714;28;8792;-48
2021/04/29 06:27:20;;;;;;;;;2.00;2.00;;;;;17.96;23.32;99655.28;4972326;28;8794;-50
2021/04/29 06:29:46;;;;;;;;;2.50;2.00;;;;;17.95;23.62;99652.88;4976199;28;9559;-47
2021/04/29 06:32:11;;;;;;;;;2.00;2.00;;;;;17.94;23.46;99652.09;4975613;28;8786;-49
2021/04/29 06:34:36;;;;;;;;;2.00;2.00;;;;;17.94;23.58;99656.72;4976121;28;9599;-49
2021/04/29 06:37:02;;;;;;;;;2.00;2.00;;;;;17.93;23.31;99647.75;4979120;28;8820;-48
2021/04/29 06:39:27;;;;;;;;;2.00;2.00;;;;;17.93;23.40;99649.66;4974923;28;8805;-50
2021/04/29 06:41:53;;;;;;;;;2.75;2.75;;;;;17.91;23.42;99658.16;4977068;28;8812;-47
2021/04/29 06:44:18;;;;;;;;;2.20;2.20;;;;;17.87;23.62;99648.19;4973852;28;8894;-48
2021/04/29 06:46:45;;;;;;;;;2.00;2.00;;;;;17.89;23.63;99646.78;4972967;28;8788;-48
2021/04/29 06:49:10;;;;;;;;;2.60;2.00;;;;;17.88;23.41;99658.78;4978603;28;8950;-48
2021/04/29 06:51:36;;;;;;;;;2.00;2.00;;;;;17.87;23.46;99653.66;4972918;28;8915;-48
2021/04/29 06:54:01;;;;;;;;;1.00;1.00;;;;;17.87;23.65;99650.91;4975870;28;8922;-48
2021/04/29 06:56:26;;;;;;;;;2.00;2.00;;;;;17.83;23.47;99645.25;4980326;28;9416;-47
2021/04/29 06:58:52;;;;;;;;;2.00;2.00;;;;;17.84;23.50;99646.88;4973396;28;8803;-50
2021/04/29 07:01:17;;;;;;;;;2.00;2.00;;;;;17.84;23.50;99649.63;4976625;28;9596;-49
2021/04/29 07:03:42;;;;;;;;;2.75;2.75;;;;;17.84;23.60;99646.09;4979386;28;8838;-48
2021/04/29 07:06:08;;;;;;;;;1.25;1.25;;;;;17.84;23.64;99649.63;4974011;28;8766;-48
2021/04/29 07:08:34;;;;;;;;;2.00;2.00;;;;;17.84;23.74;99657.00;4974469;28;8988;-51
2021/04/29 07:10:59;;;;;;;;;1.25;1.25;;;;;17.83;23.51;99647.19;4975171;28;8904;-49
2021/04/29 07:13:24;;;;;;;;;2.00;2.00;;;;;17.82;23.66;99651.84;4977879;28;8909;-48
2021/04/29 07:15:50;;;;;;;;;2.00;2.00;;;;;17.82;23.74;99651.03;4979239;28;8812;-48
2021/04/29 07:18:15;;;;;;;;;2.00;2.00;;;;;17.78;23.73;99650.88;4976173;28;9522;-50
2021/04/29 07:20:41;;;;;;;;;2.00;2.00;;;;;17.79;23.79;99653.28;4972569;28;8798;-49
2021/04/29 07:23:07;;;;;;;;;1.20;1.20;;;;;17.86;23.58;99654.78;4975761;28;8838;-48
2021/04/29 07:25:33;;;;;;;;;2.00;2.00;;;;;17.81;23.62;99652.97;4971967;28;8813;-48
2021/04/29 07:27:59;;;;;;;;;1.20;1.20;;;;;17.78;23.61;99651.69;4974707;28;9191;-48
2021/04/29 07:30:24;;;;;;;;;2.00;2.00;;;;;17.77;23.96;99655.53;4977828;28;8796;-50
2021/04/29 07:32:49;;;;;;;;;2.50;2.50;;;;;17.76;23.55;99645.75;4972166;28;8948;-48
2021/04/29 07:35:15;;;;;;;;;3.00;2.25;;;;;17.76;23.61;99653.94;4977222;28;8780;-48
2021/04/29 07:37:40;;;;;;;;;2.75;2.75;;;;;17.75;23.52;99648.78;4978787;28;8828;-49
2021/04/29 07:40:07;;;;;;;;;2.25;2.25;;;;;17.65;23.72;99633.50;4975214;28;8947;-48
2021/04/29 07:42:32;;;;;;;;;2.00;2.00;;;;;17.74;23.67;99650.69;4976895;28;8944;-47
2021/04/29 07:44:57;;;;;;;;;2.00;2.00;;;;;17.74;23.83;99653.41;4974233;28;8947;-48
2021/04/29 07:47:23;;;;;;;;;3.00;3.00;;;;;17.70;23.57;99641.53;4978201;28;9552;-48
2021/04/29 07:49:48;;;;;;;;;1.00;1.00;;;;;17.68;23.82;99638.31;4979623;28;9492;-48
2021/04/29 07:52:13;;;;;;;;;2.75;2.75;;;;;17.71;23.96;99640.44;4978657;28;8799;-50
2021/04/29 07:54:39;;;;;;;;;2.00;2.00;;;;;17.71;23.68;99642.34;4978396;28;8782;-47
2021/04/29 07:57:04;;;;;;;;;2.00;2.00;;;;;17.70;23.74;99644.25;4978623;28;8790;-49
2021/04/29 07:59:30;;;;;;;;;2.00;2.00;;;;;17.69;23.71;99634.47;4975821;28;8918;-47
2021/04/29 08:01:57;;;;;;;;;3.00;3.00;;;;;17.71;23.84;99645.06;4979545;28;8811;-48
2021/04/29 08:04:23;;;;;;;;;2.00;2.00;;;;;17.71;23.92;99642.34;4978713;28;8930;-49
2021/04/29 08:06:48;;;;;;;;;2.00;2.00;;;;;17.69;23.64;99645.38;4979922;28;8811;-49
2021/04/29 08:09:14;;;;;;;;;2.75;2.75;;;;;17.68;24.00;99649.25;4977342;28;8840;-49
2021/04/29 08:11:39;;;;;;;;;3.00;3.00;;;;;17.67;23.72;99642.16;4960282;28;9634;-48
2021/04/29 08:14:05;;;;;;;;;2.25;2.25;;;;;17.66;23.92;99640.56;4979094;28;8834;-47
2021/04/29 08:16:30;;;;;;;;;3.00;2.50;;;;;17.66;24.02;99635.13;4977291;28;8796;-50
2021/04/29 08:18:56;;;;;;;;;2.00;2.00;;;;;17.66;23.64;99642.47;4981138;28;11464;-50
2021/04/29 08:21:21;;;;;;;;;2.00;2.00;;;;;17.65;23.93;99638.16;4977395;28;8837;-49
2021/04/29 08:23:47;;;;;;;;;2.00;2.00;;;;;17.65;23.85;99640.88;4979142;28;12194;-49
2021/04/29 08:26:12;;;;;;;;;2.00;2.00;;;;;17.64;24.04;99637.34;4980995;28;8814;-49
2021/04/29 08:28:38;;;;;;;;;2.00;2.00;;;;;17.63;23.96;99630.28;4975179;28;8774;-48
2021/04/29 08:31:03;;;;;;;;;2.00;2.00;;;;;17.53;23.93;99620.44;4979827;28;8845;-47
2021/04/29 08:33:29;;;;;;;;;2.00;2.00;;;;;17.62;23.90;99633.31;4978049;28;9816;-48
2021/04/29 08:35:54;;;;;;;;;2.00;2.00;;;;;17.62;23.96;99633.31;4976210;28;8803;-47
2021/04/29 08:38:19;;;;;;;;;2.00;2.00;;;;;17.62;23.81;99636.84;4978728;28;8774;-48
2021/04/29 08:40:45;;;;;;;;;2.25;2.25;;;;;17.60;24.16;99634.44;4974583;28;9526;-50
2021/04/29 08:43:12;;;;;;;;;2.00;2.00;;;;;17.56;23.73;99621.75;4974335;28;8814;-49
2021/04/29 08:45:38;;;;;;;;;1.60;1.60;;;;;17.60;24.03;99630.91;4979919;28;8802;-48
2021/04/29 08:48:04;;;;;;;;;2.80;2.80;;;;;17.58;23.75;99624.97;4977670;28;8802;-48
2021/04/29 08:50:31;;;;;;;;;2.00;2.00;;;;;17.59;23.76;99627.38;4977989;28;8772;-48
2021/04/29 08:52:57;;;;;;;;;2.20;2.20;;;;;17.58;24.01;99633.16;4979642;28;8764;-47
2021/04/29 08:55:25;;;;;;;;;1.75;1.75;;;;;17.58;23.89;99623.03;4976976;28;8792;-49
2021/04/29 08:57:51;;;;;;;;;1.40;1.40;;;;;17.57;24.05;99626.91;4961970;28;8814;-48
2021/04/29 09:00:19;;;;;;;;;2.00;2.00;;;;;17.57;24.02;99628.81;4977601;28;8792;-48
2021/04/29 09:02:45;;;;;;;;;2.60;2.60;;;;;17.55;23.90;99631.88;4974038;28;8804;-49
2021/04/29 09:05:16;;;;;;;;;2.00;2.00;;;;;17.54;23.81;99627.53;4977258;28;8869;-46
2021/04/29 09:08:02;;;;;;;;;2.00;2.00;;;;;17.55;23.99;99625.59;4977687;28;8795;-48
2021/04/29 09:10:39;;;;;;;;;3.00;3.00;;;;;17.55;23.99;99631.88;4973702;28;8940;-49
2021/04/29 09:13:16;;;;;;;;;2.40;2.40;;;;;17.55;23.90;99622.88;4978981;28;8798;-49
2021/04/29 09:15:42;;;;;;;;;2.00;2.00;;;;;17.47;24.00;99610.03;4978234;28;8804;-50
2021/04/29 09:18:19;;;;;;;;;1.50;1.50;;;;;17.53;23.93;99623.16;4980523;28;8796;-48
2021/04/29 09:21:05;;;;;;;;;2.00;2.00;;;;;17.51;23.76;99619.16;4977621;28;10494;-49
2021/04/29 09:23:33;;;;;;;;;2.20;2.20;;;;;17.51;23.96;99610.97;4978247;28;8795;-49
2021/04/29 09:26:02;;;;;;;;;2.80;2.80;;;;;17.50;24.02;99602.00;4976338;28;8786;-48
2021/04/29 09:28:54;;;;;;;;;2.00;2.00;;;;;17.50;24.10;99612.09;4972375;28;9356;-51
2021/04/29 09:31:24;;;;;;;;;2.00;2.00;;;;;17.50;24.09;99614.81;4974544;28;8909;-47
2021/04/29 09:33:58;;;;;;;;;2.00;2.00;;;;;17.50;24.08;99612.91;4977226;28;8788;-48
2021/04/29 09:36:28;;;;;;;;;2.60;2.60;;;;;17.50;24.08;99609.38;4975144;28;8793;-48
2021/04/29 09:39:00;;;;;;;;;2.60;2.60;;;;;17.50;24.12;99612.91;4974120;28;8915;-48
2021/04/29 09:41:33;;;;;;;;;2.00;2.00;;;;;17.51;24.09;99608.25;4974708;28;9784;-50
2021/04/29 09:44:02;;;;;;;;;3.00;3.00;;;;;17.50;24.13;99612.09;4973962;28;8812;-49
2021/04/29 09:46:48;;;;;;;;;2.20;2.20;;;;;17.51;23.98;99608.25;4977381;28;8861;-47
2021/04/29 09:49:22;;;;;;;;;1.60;1.60;;;;;17.51;23.94;99613.72;4980252;28;8828;-49
2021/04/29 09:51:48;;;;;;;;;2.40;2.40;;;;;17.52;24.03;99607.13;4980203;28;8811;-49
2021/04/29 09:54:36;;;;;;;;;2.00;2.00;;;;;17.52;24.11;99602.50;4976897;28;8804;-48
2021/04/29 09:57:07;;;;;;;;;1.80;1.80;;;;;17.52;23.79;99602.50;4976615;28;11255;-49
2021/04/29 09:59:44;;;;;;;;;2.00;2.00;;;;;17.51;23.98;99603.59;4975227;28;8802;-48
2021/04/29 10:02:12;;;;;;;;;2.00;2.00;;;;;17.48;24.08;99596.03;4973423;28;8821;-49
2021/04/29 10:04:39;;;;;;;;;2.80;2.00;;;;;17.52;24.06;99596.22;4976774;28;8771;-49
2021/04/29 10:07:04;;;;;;;;;2.20;2.20;;;;;17.52;24.05;99596.22;4978302;28;8796;-48
2021/04/29 10:09:33;;;;;;;;;2.00;2.00;;;;;17.52;23.99;99591.59;4977481;28;8856;-49
2021/04/29 10:12:09;;;;;;;;;2.00;2.00;;;;;17.52;24.09;99597.03;4974013;28;8765;-47
2021/04/29 10:14:38;;;;;;;;;2.00;2.00;;;;;17.50;24.06;99599.28;4977126;28;8766;-47
2021/04/29 10:17:08;;;;;;;;;2.80;2.00;;;;;17.51;24.13;99602.81;4972602;28;8766;-48
2021/04/29 10:19:43;;;;;;;;;2.80;2.80;;;;;17.52;24.03;99596.22;4978431;28;8755;-50
2021/04/29 10:22:09;;;;;;;;;3.80;3.00;;;;;17.51;24.23;99591.91;4978615;28;8834;-48
2021/04/29 10:24:36;;;;;;;;;2.00;2.00;;;;;17.51;24.13;99587.25;4974400;28;8803;-48
2021/04/29 10:27:08;;;;;;;;;2.40;2.40;;;;;17.51;24.11;99589.16;4981753;28;8802;-49
2021/04/29 10:29:34;;;;;;;;;2.00;2.00;;;;;17.50;24.09;99582.09;4974754;28;9618;-48
2021/04/29 10:32:01;;;;;;;;;2.00;2.00;;;;;17.51;24.06;99589.97;4974378;28;8787;-47
2021/04/29 10:34:44;;;;;;;;;2.00;2.00;;;;;17.51;24.03;99591.91;4980491;28;8788;-50
2021/04/29 10:37:20;;;;;;;;;2.00;2.00;;;;;17.51;24.16;99583.72;4977297;28;8804;-48
2021/04/29 10:39:56;;;;;;;;;2.00;2.00;;;;;17.51;24.27;99581.78;4976001;28;8875;-49
2021/04/29 10:42:24;;;;;;;;;2.20;2.20;;;;;17.52;24.11;99582.56;4978182;28;8836;-47
2021/04/29 10:44:52;;;;;;;;;2.00;2.00;;;;;17.50;24.04;99571.19;4961019;28;8920;-48
2021/04/29 10:47:31;;;;;;;;;2.00;2.00;;;;;17.52;24.26;99585.31;4968932;28;8908;-48
2021/04/29 10:50:13;;;;;;;;;2.00;2.00;;;;;17.51;24.21;99583.72;4975543;28;8778;-49
2021/04/29 10:52:56;;;;;;;;;2.00;2.00;;;;;17.50;23.96;99572.00;4973911;28;8791;-48
2021/04/29 10:55:25;;;;;;;;;2.00;2.00;;;;;17.50;24.17;99568.47;4979155;28;8772;-50
2021/04/29 10:57:51;;;;;;;;;1.00;1.00;;;;;17.49;24.13;99573.13;4975454;28;8782;-49
2021/04/29 11:00:17;;;;;;;;;3.00;3.00;;;;;17.49;24.15;99572.31;4975600;28;8970;-48
2021/04/29 11:02:42;;;;;;;;;2.00;2.00;;;;;17.46;24.14;99575.69;4971714;28;8875;-49
2021/04/29 11:05:21;;;;;;;;;3.00;3.00;;;;;17.50;24.12;99579.38;4971701;28;8810;-48
2021/04/29 11:07:49;;;;;;;;;2.00;2.00;;;;;17.47;24.14;99578.09;4968472;28;8850;-49
2021/04/29 11:10:16;;;;;;;;;2.00;2.00;;;;;17.48;24.32;99567.97;4976094;28;8918;-48
2021/04/29 11:12:43;;;;;;;;;2.80;2.80;;;;;17.47;24.15;99572.63;4976342;28;8810;-47
2021/04/29 11:15:25;;;;;;;;;2.00;2.00;;;;;17.48;24.14;99573.44;4973480;28;8788;-48
2021/04/29 11:18:12;;;;;;;;;3.00;3.00;;;;;17.46;24.01;99570.22;4976679;28;8810;-49
2021/04/29 11:20:57;;;;;;;;;2.00;2.00;;;;;17.47;24.10;99566.38;4976922;28;8796;-50
2021/04/29 11:23:38;;;;;;;;;2.00;2.00;;;;;17.49;24.30;99566.88;4977519;28;8940;-48
2021/04/29 11:26:13;;;;;;;;;2.40;2.20;;;;;17.46;24.22;99564.78;4981797;28;8788;-51
2021/04/29 11:28:38;;;;;;;;;2.00;2.00;;;;;17.46;24.16;99564.78;4980394;28;8776;-49
2021/04/29 11:31:04;;;;;;;;;2.00;2.00;;;;;17.46;24.18;99564.78;4983696;28;8804;-48
2021/04/29 11:33:37;;;;;;;;;3.00;2.00;;;;;17.47;24.46;99560.94;4975690;28;8917;-47
2021/04/29 11:36:26;;;;;;;;;3.00;3.00;;;;;17.41;26.14;99565.72;4980186;28;8764;-49
2021/04/29 11:39:04;;;;;;;;;1.00;1.00;;;;;17.41;25.98;99562.97;4978551;28;8799;-49
2021/04/29 11:41:30;;;;;;;;;2.00;2.00;;;;;17.44;25.83;99562.34;4975561;28;8890;-48
2021/04/29 11:44:11;;;;;;;;;2.00;2.00;;;;;17.44;25.59;99556.09;4981556;28;9535;-49